sensor_id;sensor_type;location;lat;lon;timestamp;pressure;altitude;pressure_sealevel;temperature;humidity
50684;BME280;36654;45.042;38.994;2023-04-25T00:02:10;100804.16;;;12.03;83.79
50684;BME280;36654;45.042;38.994;2023-04-25T00:04:35;100805.94;;;12.04;83.68
50684;BME280;36654;45.042;38.994;2023-04-25T00:07:03;100818.34;;;12.05;83.67
50684;BME280;36654;45.042;38.994;2023-04-25T00:09:30;100825.47;;;12.06;83.48
50684;BME280;36654;45.042;38.994;2023-04-25T00:11:55;100814.78;;;12.03;83.26
50684;BME280;36654;45.042;38.994;2023-04-25T00:14:21;100812.09;;;11.97;83.29
50684;BME280;36654;45.042;38.994;2023-04-25T00:16:48;100804.94;;;11.88;83.40
50684;BME280;36654;45.042;38.994;2023-04-25T00:19:13;100807.59;;;11.86;83.30
50684;BME280;36654;45.042;38.994;2023-04-25T00:21:39;100795.09;;;11.75;83.26
50684;BME280;36654;45.042;38.994;2023-04-25T00:24:08;100780.03;;;11.71;82.89
50684;BME280;36654;45.042;38.994;2023-04-25T00:26:34;100827.00;;;11.82;82.71
50684;BME280;36654;45.042;38.994;2023-04-25T00:29:01;100812.78;;;11.71;82.63
50684;BME280;36654;45.042;38.994;2023-04-25T00:31:27;100814.47;;;11.64;82.48
50684;BME280;36654;45.042;38.994;2023-04-25T00:33:54;100826.03;;;11.70;82.40
50684;BME280;36654;45.042;38.994;2023-04-25T00:36:20;100841.09;;;11.72;82.25
50684;BME280;36654;45.042;38.994;2023-04-25T00:38:45;100782.44;;;11.41;82.09
50684;BME280;36654;45.042;38.994;2023-04-25T00:41:11;100835.78;;;11.72;82.07
50684;BME280;36654;45.042;38.994;2023-04-25T00:43:37;100805.66;;;11.67;82.07
50684;BME280;36654;45.042;38.994;2023-04-25T00:46:03;100827.84;;;11.74;81.79
50684;BME280;36654;45.042;38.994;2023-04-25T00:48:29;100826.97;;;11.73;81.64
50684;BME280;36654;45.042;38.994;2023-04-25T00:50:57;100833.13;;;11.72;81.28
50684;BME280;36654;45.042;38.994;2023-04-25T00:53:24;100839.28;;;11.68;81.34
50684;BME280;36654;45.042;38.994;2023-04-25T00:55:50;100844.59;;;11.66;81.19
50684;BME280;36654;45.042;38.994;2023-04-25T00:58:19;100802.81;;;11.45;81.24
50684;BME280;36654;45.042;38.994;2023-04-25T01:00:47;100801.94;;;11.43;81.10
50684;BME280;36654;45.042;38.994;2023-04-25T01:03:17;100843.72;;;11.66;81.00
50684;BME280;36654;45.042;38.994;2023-04-25T01:05:45;100788.63;;;11.39;81.06
50684;BME280;36654;45.042;38.994;2023-04-25T01:08:11;100832.22;;;11.69;80.85
50684;BME280;36654;45.042;38.994;2023-04-25T01:10:37;100814.47;;;11.63;80.53
50684;BME280;36654;45.042;38.994;2023-04-25T01:13:03;100814.50;;;11.66;80.31
50684;BME280;36654;45.042;38.994;2023-04-25T01:15:29;100830.47;;;11.69;80.28
50684;BME280;36654;45.042;38.994;2023-04-25T01:17:56;100826.88;;;11.67;80.06
50684;BME280;36654;45.042;38.994;2023-04-25T01:20:23;100823.28;;;11.59;80.07
50684;BME280;36654;45.042;38.994;2023-04-25T01:22:53;100825.03;;;11.54;80.09
50684;BME280;36654;45.042;38.994;2023-04-25T01:25:19;100830.34;;;11.57;80.11
50684;BME280;36654;45.042;38.994;2023-04-25T01:27:45;100840.94;;;11.54;80.07
50684;BME280;36654;45.042;38.994;2023-04-25T01:30:11;100842.75;;;11.58;80.04
50684;BME280;36654;45.042;38.994;2023-04-25T01:32:37;100845.41;;;11.58;80.10
50684;BME280;36654;45.042;38.994;2023-04-25T01:35:07;100838.34;;;11.58;80.10
50684;BME280;36654;45.042;38.994;2023-04-25T01:37:40;100848.06;;;11.59;80.07
50684;BME280;36654;45.042;38.994;2023-04-25T01:40:08;100841.88;;;11.59;79.71
50684;BME280;36654;45.042;38.994;2023-04-25T01:42:35;100834.78;;;11.59;79.84
50684;BME280;36654;45.042;38.994;2023-04-25T01:45:02;100851.63;;;11.63;79.92
50684;BME280;36654;45.042;38.994;2023-04-25T01:47:28;100830.34;;;11.54;79.89
50684;BME280;36654;45.042;38.994;2023-04-25T01:49:53;100853.34;;;11.58;79.93
50684;BME280;36654;45.042;38.994;2023-04-25T01:52:19;100853.41;;;11.61;80.25
50684;BME280;36654;45.042;38.994;2023-04-25T01:54:45;100837.41;;;11.55;80.40
50684;BME280;36654;45.042;38.994;2023-04-25T01:57:11;100845.38;;;11.55;80.60
50684;BME280;36654;45.042;38.994;2023-04-25T01:59:37;100833.81;;;11.50;80.70
50684;BME280;36654;45.042;38.994;2023-04-25T02:02:03;100849.81;;;11.56;80.78
50684;BME280;36654;45.042;38.994;2023-04-25T02:04:32;100834.66;;;11.45;81.10
50684;BME280;36654;45.042;38.994;2023-04-25T02:06:58;100830.22;;;11.41;81.31
50684;BME280;36654;45.042;38.994;2023-04-25T02:09:24;100855.94;;;11.50;81.52
50684;BME280;36654;45.042;38.994;2023-04-25T02:11:49;100807.06;;;11.25;81.64
50684;BME280;36654;45.042;38.994;2023-04-25T02:14:15;100854.19;;;11.49;81.76
50684;BME280;36654;45.042;38.994;2023-04-25T02:16:41;100864.81;;;11.52;81.75
50684;BME280;36654;45.042;38.994;2023-04-25T02:19:09;100855.94;;;11.50;81.72
50684;BME280;36654;45.042;38.994;2023-04-25T02:21:35;100839.03;;;11.37;81.59
50684;BME280;36654;45.042;38.994;2023-04-25T02:24:02;100855.97;;;11.52;81.72
50684;BME280;36654;45.042;38.994;2023-04-25T02:26:28;100847.94;;;11.45;81.73
50684;BME280;36654;45.042;38.994;2023-04-25T02:28:53;100814.16;;;11.26;81.75
50684;BME280;36654;45.042;38.994;2023-04-25T02:31:19;100854.22;;;11.51;81.79
50684;BME280;36654;45.042;38.994;2023-04-25T02:33:45;100849.72;;;11.43;81.87
50684;BME280;36654;45.042;38.994;2023-04-25T02:36:11;100856.00;;;11.55;81.89
50684;BME280;36654;45.042;38.994;2023-04-25T02:38:36;100858.63;;;11.52;81.79
50684;BME280;36654;45.042;38.994;2023-04-25T02:41:02;100861.34;;;11.59;81.61
50684;BME280;36654;45.042;38.994;2023-04-25T02:43:27;100863.97;;;11.58;81.56
50684;BME280;36654;45.042;38.994;2023-04-25T02:45:53;100830.19;;;11.38;81.45
50684;BME280;36654;45.042;38.994;2023-04-25T02:48:19;100864.88;;;11.60;81.57
50684;BME280;36654;45.042;38.994;2023-04-25T02:50:45;100856.88;;;11.54;81.50
50684;BME280;36654;45.042;38.994;2023-04-25T02:53:10;100865.84;;;11.66;81.26
50684;BME280;36654;45.042;38.994;2023-04-25T02:55:36;100814.28;;;11.38;81.09
50684;BME280;36654;45.042;38.994;2023-04-25T02:58:01;100858.75;;;11.64;81.20
50684;BME280;36654;45.042;38.994;2023-04-25T03:00:27;100831.28;;;11.62;80.97
50684;BME280;36654;45.042;38.994;2023-04-25T03:02:53;100872.97;;;11.75;80.92
50684;BME280;36654;45.042;38.994;2023-04-25T03:05:19;100858.78;;;11.70;80.50
50684;BME280;36654;45.042;38.994;2023-04-25T03:07:44;100867.63;;;11.69;80.58
50684;BME280;36654;45.042;38.994;2023-04-25T03:10:11;100876.53;;;11.74;80.35
50684;BME280;36654;45.042;38.994;2023-04-25T03:12:37;100874.78;;;11.76;80.50
50684;BME280;36654;45.042;38.994;2023-04-25T03:15:03;100881.94;;;11.83;80.32
50684;BME280;36654;45.042;38.994;2023-04-25T03:17:29;100877.50;;;11.85;79.92
50684;BME280;36654;45.042;38.994;2023-04-25T03:19:55;100831.31;;;11.68;79.75
50684;BME280;36654;45.042;38.994;2023-04-25T03:22:21;100869.59;;;11.89;79.74
50684;BME280;36654;45.042;38.994;2023-04-25T03:24:46;100894.47;;;11.97;79.40
50684;BME280;36654;45.042;38.994;2023-04-25T03:27:13;100862.53;;;11.91;79.27
50684;BME280;36654;45.042;38.994;2023-04-25T03:29:38;100883.84;;;11.97;79.19
50684;BME280;36654;45.042;38.994;2023-04-25T03:32:04;100884.72;;;11.97;78.89
50684;BME280;36654;45.042;38.994;2023-04-25T03:34:29;100897.13;;;11.98;78.78
50684;BME280;36654;45.042;38.994;2023-04-25T03:36:55;100891.84;;;12.03;78.72
50684;BME280;36654;45.042;38.994;2023-04-25T03:39:21;100874.13;;;12.02;78.76
50684;BME280;36654;45.042;38.994;2023-04-25T03:41:47;100895.47;;;12.14;78.45
50684;BME280;36654;45.042;38.994;2023-04-25T03:44:12;100888.44;;;12.19;78.41
50684;BME280;36654;45.042;38.994;2023-04-25T03:46:38;100901.75;;;12.25;78.13
50684;BME280;36654;45.042;38.994;2023-04-25T03:49:03;100899.13;;;12.28;78.02
50684;BME280;36654;45.042;38.994;2023-04-25T03:51:29;100903.63;;;12.36;77.96
50684;BME280;36654;45.042;38.994;2023-04-25T03:53:56;100876.97;;;12.33;77.73
50684;BME280;36654;45.042;38.994;2023-04-25T03:56:22;100893.19;;;12.77;77.58
50684;BME280;36654;45.042;38.994;2023-04-25T03:58:47;100900.44;;;13.13;76.94
50684;BME280;36654;45.042;38.994;2023-04-25T04:01:13;100898.78;;;13.35;75.23
50684;BME280;36654;45.042;38.994;2023-04-25T04:03:39;100890.78;;;13.35;74.63
50684;BME280;36654;45.042;38.994;2023-04-25T04:06:05;100900.56;;;13.44;74.09
50684;BME280;36654;45.042;38.994;2023-04-25T04:08:32;100917.44;;;13.43;73.85
50684;BME280;36654;45.042;38.994;2023-04-25T04:10:58;100892.47;;;13.21;73.58
50684;BME280;36654;45.042;38.994;2023-04-25T04:13:26;100895.97;;;13.03;74.21
50684;BME280;36654;45.042;38.994;2023-04-25T04:15:52;100911.84;;;12.88;74.64
50684;BME280;36654;45.042;38.994;2023-04-25T04:18:17;100899.38;;;12.71;74.86
50684;BME280;36654;45.042;38.994;2023-04-25T04:20:43;100901.13;;;12.72;75.35
50684;BME280;36654;45.042;38.994;2023-04-25T04:23:08;100917.13;;;12.77;74.97
50684;BME280;36654;45.042;38.994;2023-04-25T04:25:34;100884.31;;;12.70;74.48
50684;BME280;36654;45.042;38.994;2023-04-25T04:28:00;100903.78;;;12.69;74.49
50684;BME280;36654;45.042;38.994;2023-04-25T04:30:26;100893.13;;;12.63;74.31
50684;BME280;36654;45.042;38.994;2023-04-25T04:32:55;100910.84;;;12.64;74.47
50684;BME280;36654;45.042;38.994;2023-04-25T04:35:22;100906.47;;;12.71;75.02
50684;BME280;36654;45.042;38.994;2023-04-25T04:37:47;100904.66;;;12.61;75.05
50684;BME280;36654;45.042;38.994;2023-04-25T04:40:14;100906.47;;;12.72;75.02
50684;BME280;36654;45.042;38.994;2023-04-25T04:42:44;100913.56;;;12.75;74.71
50684;BME280;36654;45.042;38.994;2023-04-25T04:45:11;100908.28;;;12.77;74.60
50684;BME280;36654;45.042;38.994;2023-04-25T04:47:38;100894.03;;;12.70;74.36
50684;BME280;36654;45.042;38.994;2023-04-25T04:50:09;100908.28;;;12.77;74.54
50684;BME280;36654;45.042;38.994;2023-04-25T04:52:35;100869.16;;;12.60;74.50
50684;BME280;36654;45.042;38.994;2023-04-25T04:55:03;100905.63;;;12.80;74.36
50684;BME280;36654;45.042;38.994;2023-04-25T04:57:29;100910.03;;;12.76;74.13
50684;BME280;36654;45.042;38.994;2023-04-25T04:59:55;100901.22;;;12.83;74.35
50684;BME280;36654;45.042;38.994;2023-04-25T05:02:21;100904.81;;;12.96;74.50
50684;BME280;36654;45.042;38.994;2023-04-25T05:04:46;100858.66;;;12.92;74.15
50684;BME280;36654;45.042;38.994;2023-04-25T05:07:12;100896.88;;;13.17;73.82
50684;BME280;36654;45.042;38.994;2023-04-25T05:09:38;100902.22;;;13.14;73.52
50684;BME280;36654;45.042;38.994;2023-04-25T05:12:04;100877.34;;;13.05;73.53
50684;BME280;36654;45.042;38.994;2023-04-25T05:14:29;100858.66;;;12.83;73.53
50684;BME280;36654;45.042;38.994;2023-04-25T05:16:55;100899.50;;;13.05;73.71
50684;BME280;36654;45.042;38.994;2023-04-25T05:19:20;100877.31;;;12.94;73.88
50684;BME280;36654;45.042;38.994;2023-04-25T05:21:46;100876.44;;;13.00;73.69
50684;BME280;36654;45.042;38.994;2023-04-25T05:24:11;100895.06;;;13.00;73.46
50684;BME280;36654;45.042;38.994;2023-04-25T05:26:37;100892.41;;;13.00;73.35
50684;BME280;36654;45.042;38.994;2023-04-25T05:29:03;100895.97;;;13.05;73.42
50684;BME280;36654;45.042;38.994;2023-04-25T05:31:29;100898.66;;;13.09;73.35
50684;BME280;36654;45.042;38.994;2023-04-25T05:33:55;100887.13;;;13.20;73.15
50684;BME280;36654;45.042;38.994;2023-04-25T05:36:20;100888.06;;;13.28;73.00
50684;BME280;36654;45.042;38.994;2023-04-25T05:38:46;100889.88;;;13.32;72.75
50684;BME280;36654;45.042;38.994;2023-04-25T05:41:12;100879.22;;;13.32;72.53
50684;BME280;36654;45.042;38.994;2023-04-25T05:43:38;100897.00;;;13.42;72.41
50684;BME280;36654;45.042;38.994;2023-04-25T05:46:03;100889.91;;;13.50;72.39
50684;BME280;36654;45.042;38.994;2023-04-25T05:48:29;100879.25;;;13.56;71.64
50684;BME280;36654;45.042;38.994;2023-04-25T05:50:55;100889.94;;;13.66;70.78
50684;BME280;36654;45.042;38.994;2023-04-25T05:53:21;100833.97;;;13.43;69.29
50684;BME280;36654;45.042;38.994;2023-04-25T05:55:47;100871.28;;;13.82;68.35
50684;BME280;36654;45.042;38.994;2023-04-25T05:58:12;100742.50;;;13.08;66.67
50684;BME280;36654;45.042;38.994;2023-04-25T06:00:38;100881.06;;;14.03;66.04
50684;BME280;36654;45.042;38.994;2023-04-25T06:03:04;100867.72;;;14.20;65.07
50684;BME280;36654;45.042;38.994;2023-04-25T06:05:30;100882.78;;;14.29;64.69
50684;BME280;36654;45.042;38.994;2023-04-25T06:07:55;100847.25;;;14.24;63.82
50684;BME280;36654;45.042;38.994;2023-04-25T06:10:21;100888.97;;;14.65;62.61
50684;BME280;36654;45.042;38.994;2023-04-25T06:12:48;100847.22;;;14.58;61.30
50684;BME280;36654;45.042;38.994;2023-04-25T06:15:13;100888.03;;;14.81;61.22
50684;BME280;36654;45.042;38.994;2023-04-25T06:17:39;100861.34;;;14.81;60.54
50684;BME280;36654;45.042;38.994;2023-04-25T06:20:05;100850.72;;;14.66;60.25
50684;BME280;36654;45.042;38.994;2023-04-25T06:22:31;100887.06;;;14.99;60.13
50684;BME280;36654;45.042;38.994;2023-04-25T06:24:57;100865.69;;;15.04;59.58
50684;BME280;36654;45.042;38.994;2023-04-25T06:27:24;100893.19;;;15.21;59.28
50684;BME280;36654;45.042;38.994;2023-04-25T06:29:50;100898.47;;;15.34;58.31
50684;BME280;36654;45.042;38.994;2023-04-25T06:32:15;100836.25;;;15.16;58.10
50684;BME280;36654;45.042;38.994;2023-04-25T06:34:43;100889.53;;;15.38;57.98
50684;BME280;36654;45.042;38.994;2023-04-25T06:37:09;100875.31;;;15.36;58.00
50684;BME280;36654;45.042;38.994;2023-04-25T06:39:35;100902.06;;;15.22;56.01
50684;BME280;36654;45.042;38.994;2023-04-25T06:42:00;100866.59;;;14.97;56.28
50684;BME280;36654;45.042;38.994;2023-04-25T06:44:26;100898.59;;;15.06;56.55
50684;BME280;36654;45.042;38.994;2023-04-25T06:46:54;100911.94;;;15.06;57.38
50684;BME280;36654;45.042;38.994;2023-04-25T06:49:20;100891.47;;;15.08;57.70
50684;BME280;36654;45.042;38.994;2023-04-25T06:51:45;100879.00;;;15.08;57.10
50684;BME280;36654;45.042;38.994;2023-04-25T06:54:11;100889.66;;;15.16;56.95
50684;BME280;36654;45.042;38.994;2023-04-25T06:56:37;100870.13;;;15.06;57.42
50684;BME280;36654;45.042;38.994;2023-04-25T06:59:02;100901.19;;;15.23;57.34
50684;BME280;36654;45.042;38.994;2023-04-25T07:01:28;100912.72;;;15.32;57.27
50684;BME280;36654;45.042;38.994;2023-04-25T07:03:53;100879.75;;;15.35;56.79
50684;BME280;36654;45.042;38.994;2023-04-25T07:06:19;100886.91;;;15.28;56.97
50684;BME280;36654;45.042;38.994;2023-04-25T07:08:45;100883.41;;;15.20;56.78
50684;BME280;36654;45.042;38.994;2023-04-25T07:11:10;100909.03;;;15.49;57.32
50684;BME280;36654;45.042;38.994;2023-04-25T07:13:36;100912.56;;;15.60;57.08
50684;BME280;36654;45.042;38.994;2023-04-25T07:16:02;100919.63;;;15.70;57.38
50684;BME280;36654;45.042;38.994;2023-04-25T07:18:28;100890.97;;;15.91;57.04
50684;BME280;36654;45.042;38.994;2023-04-25T07:20:54;100907.78;;;16.05;56.33
50684;BME280;36654;45.042;38.994;2023-04-25T07:23:19;100913.13;;;16.02;56.72
50684;BME280;36654;45.042;38.994;2023-04-25T07:25:45;100901.63;;;15.94;56.90
50684;BME280;36654;45.042;38.994;2023-04-25T07:28:11;100905.00;;;16.16;57.14
50684;BME280;36654;45.042;38.994;2023-04-25T07:30:36;100893.53;;;16.03;56.73
50684;BME280;36654;45.042;38.994;2023-04-25T07:33:02;100920.34;;;15.95;56.23
50684;BME280;36654;45.042;38.994;2023-04-25T07:35:27;100891.06;;;15.79;56.45
50684;BME280;36654;45.042;38.994;2023-04-25T07:37:53;100917.69;;;15.91;56.78
50684;BME280;36654;45.042;38.994;2023-04-25T07:40:19;100901.66;;;15.91;56.41
50684;BME280;36654;45.042;38.994;2023-04-25T07:42:44;100900.75;;;15.95;56.02
50684;BME280;36654;45.042;38.994;2023-04-25T07:45:10;100898.00;;;16.01;55.40
50684;BME280;36654;45.042;38.994;2023-04-25T07:47:36;100921.19;;;15.99;54.70
50684;BME280;36654;45.042;38.994;2023-04-25T07:50:02;100898.09;;;15.89;55.12
50684;BME280;36654;45.042;38.994;2023-04-25T07:52:28;100895.56;;;15.72;54.70
50684;BME280;36654;45.042;38.994;2023-04-25T07:54:54;100921.31;;;15.84;54.71
50684;BME280;36654;45.042;38.994;2023-04-25T07:57:20;100921.25;;;15.93;54.71
50684;BME280;36654;45.042;38.994;2023-04-25T07:59:45;100905.16;;;15.99;53.63
50684;BME280;36654;45.042;38.994;2023-04-25T08:02:11;100873.22;;;15.81;53.40
50684;BME280;36654;45.042;38.994;2023-04-25T08:04:37;100918.56;;;15.90;52.83
50684;BME280;36654;45.042;38.994;2023-04-25T08:07:02;100909.75;;;15.83;52.73
50684;BME280;36654;45.042;38.994;2023-04-25T08:09:28;100916.81;;;15.89;52.46
50684;BME280;36654;45.042;38.994;2023-04-25T08:11:54;100903.47;;;15.86;52.70
50684;BME280;36654;45.042;38.994;2023-04-25T08:14:20;100924.84;;;15.89;53.12
50684;BME280;36654;45.042;38.994;2023-04-25T08:16:45;100919.47;;;15.93;53.71
50684;BME280;36654;45.042;38.994;2023-04-25T08:19:11;100882.94;;;15.89;53.41
50684;BME280;36654;45.042;38.994;2023-04-25T08:21:37;100913.22;;;15.90;53.80
50684;BME280;36654;45.042;38.994;2023-04-25T08:24:03;100913.19;;;15.94;53.87
50684;BME280;36654;45.042;38.994;2023-04-25T08:26:29;100928.38;;;15.94;52.81
50684;BME280;36654;45.042;38.994;2023-04-25T08:28:55;100922.19;;;15.86;52.94
50684;BME280;36654;45.042;38.994;2023-04-25T08:31:20;100927.47;;;15.93;52.89
50684;BME280;36654;45.042;38.994;2023-04-25T08:33:46;100922.13;;;15.92;52.53
50684;BME280;36654;45.042;38.994;2023-04-25T08:36:11;100925.63;;;16.02;52.24
50684;BME280;36654;45.042;38.994;2023-04-25T08:38:37;100935.38;;;16.07;51.89
50684;BME280;36654;45.042;38.994;2023-04-25T08:41:03;100930.06;;;16.04;51.29
50684;BME280;36654;45.042;38.994;2023-04-25T08:43:30;100895.41;;;15.93;51.25
50684;BME280;36654;45.042;38.994;2023-04-25T08:46:00;100911.28;;;16.13;51.17
50684;BME280;36654;45.042;38.994;2023-04-25T08:48:27;100918.38;;;16.16;51.10
50684;BME280;36654;45.042;38.994;2023-04-25T08:50:55;100904.94;;;16.22;50.25
50684;BME280;36654;45.042;38.994;2023-04-25T08:53:29;100910.13;;;16.39;50.16
50684;BME280;36654;45.042;38.994;2023-04-25T08:55:58;100889.38;;;16.63;48.90
50684;BME280;36654;45.042;38.994;2023-04-25T08:58:24;100924.13;;;16.64;48.22
50684;BME280;36654;45.042;38.994;2023-04-25T09:00:51;100907.38;;;16.48;48.60
50684;BME280;36654;45.042;38.994;2023-04-25T09:03:17;100907.19;;;16.65;48.58
50684;BME280;36654;45.042;38.994;2023-04-25T09:05:43;100895.47;;;16.80;47.69
50684;BME280;36654;45.042;38.994;2023-04-25T09:08:09;100835.13;;;16.48;47.67
50684;BME280;36654;45.042;38.994;2023-04-25T09:10:36;100912.16;;;16.99;48.12
50684;BME280;36654;45.042;38.994;2023-04-25T09:13:09;100904.28;;;16.88;47.32
50684;BME280;36654;45.042;38.994;2023-04-25T09:15:55;100899.13;;;16.67;46.93
50684;BME280;36654;45.042;38.994;2023-04-25T09:18:30;100899.16;;;16.65;47.17
50684;BME280;36654;45.042;38.994;2023-04-25T09:21:08;100892.91;;;16.66;46.87
50684;BME280;36654;45.042;38.994;2023-04-25T09:23:46;100902.63;;;16.72;46.00
50684;BME280;36654;45.042;38.994;2023-04-25T09:26:15;100898.97;;;16.85;45.84
50684;BME280;36654;45.042;38.994;2023-04-25T09:28:42;100886.56;;;16.75;45.22
50684;BME280;36654;45.042;38.994;2023-04-25T09:31:10;100890.03;;;16.85;45.36
50684;BME280;36654;45.042;38.994;2023-04-25T09:33:37;100877.56;;;16.82;45.65
50684;BME280;36654;45.042;38.994;2023-04-25T09:36:07;100901.66;;;16.82;46.31
50684;BME280;36654;45.042;38.994;2023-04-25T09:38:42;100872.03;;;16.97;45.90
50684;BME280;36654;45.042;38.994;2023-04-25T09:41:09;100848.22;;;16.70;45.51
50684;BME280;36654;45.042;38.994;2023-04-25T09:43:36;100904.13;;;17.00;45.34
50684;BME280;36654;45.042;38.994;2023-04-25T09:46:02;100893.16;;;17.19;45.82
50684;BME280;36654;45.042;38.994;2023-04-25T09:48:32;100864.44;;;17.30;45.69
50684;BME280;36654;45.042;38.994;2023-04-25T09:51:10;100890.25;;;17.37;44.57
50684;BME280;36654;45.042;38.994;2023-04-25T09:53:39;100899.34;;;17.24;44.66
50684;BME280;36654;45.042;38.994;2023-04-25T09:56:07;100908.41;;;17.12;45.07
50684;BME280;36654;45.042;38.994;2023-04-25T09:58:34;100888.00;;;17.03;45.24
50684;BME280;36654;45.042;38.994;2023-04-25T10:01:03;100911.19;;;17.04;45.15
50684;BME280;36654;45.042;38.994;2023-04-25T10:03:36;100916.53;;;17.08;44.92
50684;BME280;36654;45.042;38.994;2023-04-25T10:06:05;100911.97;;;17.14;45.02
50684;BME280;36654;45.042;38.994;2023-04-25T10:08:36;100924.47;;;17.15;44.82
50684;BME280;36654;45.042;38.994;2023-04-25T10:11:06;100907.47;;;17.18;44.50
50684;BME280;36654;45.042;38.994;2023-04-25T10:13:33;100919.78;;;17.31;44.56
50684;BME280;36654;45.042;38.994;2023-04-25T10:16:01;100882.00;;;17.51;43.21
50684;BME280;36654;45.042;38.994;2023-04-25T10:18:28;100905.22;;;17.51;42.83
50684;BME280;36654;45.042;38.994;2023-04-25T10:20:56;100906.09;;;17.51;42.94
50684;BME280;36654;45.042;38.994;2023-04-25T10:23:23;100916.72;;;17.59;43.22
50684;BME280;36654;45.042;38.994;2023-04-25T10:25:50;100884.63;;;17.54;42.83
50684;BME280;36654;45.042;38.994;2023-04-25T10:28:17;100881.78;;;17.65;42.83
50684;BME280;36654;45.042;38.994;2023-04-25T10:31:02;100906.47;;;17.88;43.10
50684;BME280;36654;45.042;38.994;2023-04-25T10:33:36;100900.22;;;17.86;43.03
50684;BME280;36654;45.042;38.994;2023-04-25T10:36:10;100895.34;;;17.54;43.17
50684;BME280;36654;45.042;38.994;2023-04-25T10:38:36;100893.69;;;17.44;43.89
50684;BME280;36654;45.042;38.994;2023-04-25T10:41:07;100898.88;;;17.58;43.09
50684;BME280;36654;45.042;38.994;2023-04-25T10:46:33;100890.53;;;17.76;43.02
50684;BME280;36654;45.042;38.994;2023-04-25T10:49:02;100878.78;;;17.86;42.42
50684;BME280;36654;45.042;38.994;2023-04-25T10:51:31;100876.00;;;17.93;43.15
50684;BME280;36654;45.042;38.994;2023-04-25T10:53:58;100883.88;;;18.03;42.80
50684;BME280;36654;45.042;38.994;2023-04-25T10:56:30;100877.81;;;17.91;42.61
50684;BME280;36654;45.042;38.994;2023-04-25T10:59:16;100859.28;;;17.74;43.09
50684;BME280;36654;45.042;38.994;2023-04-25T11:01:43;100870.91;;;17.74;43.22
50684;BME280;36654;45.042;38.994;2023-04-25T11:07:10;100855.69;;;17.76;43.80
50684;BME280;36654;45.042;38.994;2023-04-25T11:09:40;100888.78;;;17.72;44.17
50684;BME280;36654;45.042;38.994;2023-04-25T11:12:08;100869.03;;;17.82;44.36
50684;BME280;36654;45.042;38.994;2023-04-25T11:14:34;100862.84;;;17.76;43.67
50684;BME280;36654;45.042;38.994;2023-04-25T11:17:00;100873.22;;;17.99;43.19
50684;BME280;36654;45.042;38.994;2023-04-25T11:19:27;100897.47;;;17.93;42.73
50684;BME280;36654;45.042;38.994;2023-04-25T11:21:57;100892.09;;;17.93;43.14
50684;BME280;36654;45.042;38.994;2023-04-25T11:24:27;100872.41;;;17.94;43.06
50684;BME280;36654;45.042;38.994;2023-04-25T11:26:53;100876.97;;;17.87;43.31
50684;BME280;36654;45.042;38.994;2023-04-25T11:29:22;100884.13;;;17.86;42.55
50684;BME280;36654;45.042;38.994;2023-04-25T11:31:48;100880.59;;;17.86;42.56
50684;BME280;36654;45.042;38.994;2023-04-25T11:34:20;100868.16;;;17.79;42.77
50684;BME280;36654;45.042;38.994;2023-04-25T11:36:46;100842.47;;;17.65;42.69
50684;BME280;36654;45.042;38.994;2023-04-25T11:39:12;100841.28;;;17.83;42.48
50684;BME280;36654;45.042;38.994;2023-04-25T11:41:38;100854.69;;;17.83;42.23
50684;BME280;36654;45.042;38.994;2023-04-25T11:44:04;100870.59;;;17.96;41.72
50684;BME280;36654;45.042;38.994;2023-04-25T11:46:30;100878.72;;;17.91;42.42
50684;BME280;36654;45.042;38.994;2023-04-25T11:48:59;100870.66;;;17.93;42.46
50684;BME280;36654;45.042;38.994;2023-04-25T11:51:24;100877.75;;;17.94;42.38
50684;BME280;36654;45.042;38.994;2023-04-25T11:53:51;100875.94;;;17.96;42.01
50684;BME280;36654;45.042;38.994;2023-04-25T11:56:17;100851.00;;;17.91;42.10
50684;BME280;36654;45.042;38.994;2023-04-25T11:59:02;100873.50;;;17.79;42.71
50684;BME280;36654;45.042;38.994;2023-04-25T12:01:33;100883.34;;;17.78;42.67
50684;BME280;36654;45.042;38.994;2023-04-25T12:06:39;100858.63;;;17.59;43.28
50684;BME280;36654;45.042;38.994;2023-04-25T12:09:08;100870.81;;;17.79;43.43
50684;BME280;36654;45.042;38.994;2023-04-25T12:11:44;100877.06;;;17.79;43.06
50684;BME280;36654;45.042;38.994;2023-04-25T12:14:11;100874.44;;;17.76;42.98
50684;BME280;36654;45.042;38.994;2023-04-25T12:16:44;100870.84;;;17.80;43.26
50684;BME280;36654;45.042;38.994;2023-04-25T12:19:14;100881.56;;;17.80;43.20
50684;BME280;36654;45.042;38.994;2023-04-25T12:21:40;100864.78;;;17.67;43.18
50684;BME280;36654;45.042;38.994;2023-04-25T12:24:16;100872.81;;;17.66;43.42
50684;BME280;36654;45.042;38.994;2023-04-25T12:26:53;100865.78;;;17.59;44.03
50684;BME280;36654;45.042;38.994;2023-04-25T12:29:25;100873.50;;;17.79;43.99
50684;BME280;36654;45.042;38.994;2023-04-25T12:31:52;100868.91;;;17.88;43.14
50684;BME280;36654;45.042;38.994;2023-04-25T12:34:19;100852.94;;;17.82;42.62
50684;BME280;36654;45.042;38.994;2023-04-25T12:36:45;100878.91;;;17.80;43.04
50684;BME280;36654;45.042;38.994;2023-04-25T12:39:18;100874.41;;;17.81;43.30
50684;BME280;36654;45.042;38.994;2023-04-25T12:41:45;100877.03;;;17.85;43.11
50684;BME280;36654;45.042;38.994;2023-04-25T12:44:12;100870.91;;;17.74;43.27
50684;BME280;36654;45.042;38.994;2023-04-25T12:46:37;100871.75;;;17.78;43.23
50684;BME280;36654;45.042;38.994;2023-04-25T12:49:04;100874.41;;;17.82;43.39